Time;durP1;ratioP1;P1;durP2;ratioP2;P2;SDS_P1;SDS_P2;PMS_P1;PMS_P2;Temp;Humidity;BMP_temperature;BMP_pressure;BME280_temperature;BME280_humidity;BME280_pressure;Samples;Min_cycle;Max_cycle;Signal;HPM_P1;HPM_P2
2023/04/20 00:00:10;;;;;;;9.23;1.55;;;6.90;1.00;;;;;;5057759;28;20141;-83
2023/04/20 00:02:39;;;;;;;0.00;0.00;;;6.90;99.90;;;;;;5042759;28;20470;-83
2023/04/20 00:05:08;;;;;;;0.00;0.00;;;7.00;10.30;;;;;;5057498;28;20041;-84
2023/04/20 00:07:34;;;;;;;0.15;0.15;;;7.00;72.40;;;;;;5057886;28;20500;-83
2023/04/20 00:10:02;;;;;;;0.00;0.00;;;7.00;99.90;;;;;;5057876;28;20131;-83
2023/04/20 00:12:28;;;;;;;0.57;0.35;;;7.00;99.90;;;;;;5041379;28;20052;-83
2023/04/20 00:14:54;;;;;;;0.00;0.00;;;7.10;99.90;;;;;;5074405;28;20048;-83
2023/04/20 00:17:20;;;;;;;14.63;0.77;;;7.10;99.90;;;;;;5073398;28;20051;-83
2023/04/20 00:19:46;;;;;;;0.10;0.10;;;7.10;99.90;;;;;;5041108;28;20564;-83
2023/04/20 00:22:12;;;;;;;0.00;0.00;;;7.20;99.90;;;;;;5041168;28;20098;-83
2023/04/20 00:24:38;;;;;;;0.00;0.00;;;7.20;99.90;;;;;;5074229;28;20442;-83
2023/04/20 00:27:03;;;;;;;0.00;0.00;;;7.30;1.00;;;;;;5040803;28;20044;-83
2023/04/20 00:29:29;;;;;;;0.00;0.00;;;7.30;99.90;;;;;;5057192;28;20495;-84
2023/04/20 00:31:55;;;;;;;0.32;0.00;;;7.30;1.00;;;;;;5040798;28;20052;-84
2023/04/20 00:34:20;;;;;;;0.00;0.00;;;7.30;99.90;;;;;;5040778;28;20051;-84
2023/04/20 00:36:46;;;;;;;0.00;0.00;;;7.30;99.90;;;;;;5056833;28;20113;-83
2023/04/20 00:39:12;;;;;;;0.88;0.60;;;7.30;99.90;;;;;;5073849;28;20048;-83
2023/04/20 00:41:38;;;;;;;1.10;0.10;;;7.20;99.90;;;;;;5056918;28;20049;-83
2023/04/20 00:44:06;;;;;;;0.00;0.00;;;7.20;1.00;;;;;;5040349;28;20066;-83
2023/04/20 00:46:32;;;;;;;0.00;0.00;;;7.10;1.00;;;;;;5057098;28;20079;-83
2023/04/20 00:48:59;;;;;;;0.00;0.00;;;7.30;99.90;;;;;;5040639;28;20045;-84
2023/04/20 00:51:26;;;;;;;2.65;0.28;;;7.30;1.00;;;;;;5074059;28;20503;-83
2023/04/20 00:53:52;;;;;;;2.58;0.35;;;7.40;1.00;;;;;;5057453;28;20040;-83
2023/04/20 00:56:18;;;;;;;0.00;0.00;;;7.40;1.00;;;;;;5040467;28;20094;-83
2023/04/20 00:58:45;;;;;;;0.00;0.00;;;7.50;1.00;;;;;;5056537;28;20056;-84
2023/04/20 01:01:11;;;;;;;0.00;0.00;;;7.50;1.00;;;;;;5073218;28;20123;-83
2023/04/20 01:03:38;;;;;;;0.00;0.00;;;7.60;1.00;;;;;;5040007;28;20048;-83
2023/04/20 01:06:06;;;;;;;0.03;0.03;;;7.60;99.90;;;;;;5056042;28;20080;-83
2023/04/20 01:08:31;;;;;;;0.00;0.00;;;7.60;1.00;;;;;;5057160;28;20102;-83
2023/04/20 01:10:57;;;;;;;0.00;0.00;;;7.70;99.90;;;;;;5056664;28;20032;-83
2023/04/20 01:13:23;;;;;;;0.08;0.00;;;7.70;99.90;;;;;;5039898;28;20506;-83
2023/04/20 01:15:49;;;;;;;0.00;0.00;;;7.80;1.00;;;;;;5072985;28;20102;-83
2023/04/20 01:18:17;;;;;;;0.00;0.00;;;7.90;99.90;;;;;;5056464;28;20041;-83
2023/04/20 01:20:44;;;;;;;0.00;0.00;;;7.90;99.90;;;;;;5056128;28;20131;-83
2023/04/20 01:23:09;;;;;;;0.00;0.00;;;8.00;99.90;;;;;;5056483;28;20048;-83
2023/04/20 01:25:35;;;;;;;0.52;0.38;;;8.10;99.90;;;;;;5072847;28;20113;-83
2023/04/20 01:28:01;;;;;;;0.08;0.08;;;8.10;99.90;;;;;;5039336;28;20047;-83
2023/04/20 01:30:27;;;;;;;0.05;0.00;;;8.10;99.90;;;;;;5039737;28;20052;-83
2023/04/20 01:32:53;;;;;;;0.00;0.00;;;8.20;99.90;;;;;;5073045;28;20048;-83
2023/04/20 01:35:19;;;;;;;0.00;0.00;;;8.20;99.90;;;;;;5022628;28;20896;-84
2023/04/20 01:37:44;;;;;;;0.00;0.00;;;8.30;99.90;;;;;;5039581;28;20076;-83
2023/04/20 01:40:12;;;;;;;0.00;0.00;;;8.30;36.40;;;;;;5039279;28;20040;-83
2023/04/20 01:42:38;;;;;;;0.00;0.00;;;8.40;1.00;;;;;;5055861;28;20060;-83
2023/04/20 01:45:05;;;;;;;0.00;0.00;;;8.50;1.00;;;;;;5073417;28;20048;-83
2023/04/20 01:47:31;;;;;;;0.10;0.10;;;8.50;1.00;;;;;;5056015;28;20040;-83
2023/04/20 01:49:57;;;;;;;0.20;0.10;;;8.50;99.90;;;;;;5072988;28;20048;-83
2023/04/20 01:52:22;;;;;;;0.08;0.08;;;8.50;99.90;;;;;;5056195;28;20504;-83
2023/04/20 01:54:48;;;;;;;0.00;0.00;;;8.40;99.90;;;;;;5055814;28;20048;-83
2023/04/20 01:57:14;;;;;;;0.00;0.00;;;8.50;99.90;;;;;;5055771;28;20044;-83
2023/04/20 01:59:39;;;;;;;0.00;0.00;;;8.50;1.00;;;;;;5072190;28;20412;-83
2023/04/20 02:02:05;;;;;;;0.00;0.00;;;8.50;99.90;;;;;;5055980;28;20102;-83
2023/04/20 02:04:31;;;;;;;0.10;0.00;;;8.50;99.90;;;;;;5055937;28;20052;-83
2023/04/20 02:07:00;;;;;;;0.15;0.15;;;8.50;1.00;;;;;;5055136;28;20036;-83
2023/04/20 02:09:25;;;;;;;0.00;0.00;;;8.50;1.00;;;;;;5055822;28;20040;-83
2023/04/20 02:11:51;;;;;;;0.00;0.00;;;8.50;1.00;;;;;;5072584;28;20047;-83
2023/04/20 02:14:17;;;;;;;0.10;0.10;;;8.50;1.00;;;;;;5022737;28;20049;-83
2023/04/20 02:16:42;;;;;;;0.10;0.10;;;8.50;1.00;;;;;;5055700;28;20045;-83
2023/04/20 02:19:08;;;;;;;0.85;0.22;;;8.50;1.00;;;;;;5022550;28;20177;-83
2023/04/20 02:21:34;;;;;;;0.00;0.00;;;8.50;1.00;;;;;;5055614;28;20063;-83
2023/04/20 02:24:00;;;;;;;9.23;0.45;;;8.50;1.00;;;;;;5055692;28;20036;-83
2023/04/20 02:26:26;;;;;;;0.35;0.35;;;8.50;3.80;;;;;;5072037;28;20066;-83
2023/04/20 02:28:52;;;;;;;0.00;0.00;;;8.40;79.50;;;;;;5056463;28;20040;-83
2023/04/20 02:31:21;;;;;;;0.00;0.00;;;8.40;99.90;;;;;;5022824;28;20131;-83
2023/04/20 02:33:48;;;;;;;0.00;0.00;;;8.50;99.90;;;;;;5055785;28;20137;-83
2023/04/20 02:36:14;;;;;;;0.00;0.00;;;8.40;99.90;;;;;;5071991;28;20056;-83
2023/04/20 02:38:40;;;;;;;0.03;0.00;;;8.40;99.90;;;;;;5055629;28;20059;-83
2023/04/20 02:41:06;;;;;;;0.00;0.00;;;8.40;99.90;;;;;;5057796;28;20045;-83
2023/04/20 02:43:35;;;;;;;0.00;0.00;;;8.40;99.90;;;;;;5042288;28;20048;-83
2023/04/20 02:46:00;;;;;;;0.00;0.00;;;8.40;99.90;;;;;;5043872;28;20101;-83
2023/04/20 02:48:26;;;;;;;0.22;0.22;;;8.40;99.90;;;;;;5043207;28;20044;-83
2023/04/20 02:50:55;;;;;;;0.00;0.00;;;8.30;99.90;;;;;;5059060;28;20055;-83
2023/04/20 02:53:21;;;;;;;0.00;0.00;;;8.30;99.90;;;;;;5042611;28;20095;-83
2023/04/20 02:55:49;;;;;;;0.00;0.00;;;8.30;99.90;;;;;;5042479;28;20438;-83
2023/04/20 02:58:16;;;;;;;0.00;0.00;;;8.30;1.00;;;;;;5075692;28;20517;-83
2023/04/20 03:00:42;;;;;;;0.00;0.00;;;8.20;99.90;;;;;;5042613;28;20602;-83
2023/04/20 03:03:08;;;;;;;0.00;0.00;;;8.20;99.90;;;;;;5059611;28;20055;-83
2023/04/20 03:05:34;;;;;;;0.00;0.00;;;8.20;1.00;;;;;;5075064;28;20055;-83
2023/04/20 03:08:00;;;;;;;0.00;0.00;;;8.20;1.00;;;;;;5059030;28;20049;-83
2023/04/20 03:10:25;;;;;;;0.00;0.00;;;8.20;1.00;;;;;;5026213;28;20044;-83
2023/04/20 03:12:51;;;;;;;0.70;0.03;;;8.20;1.00;;;;;;5076112;28;20463;-83
2023/04/20 03:15:17;;;;;;;0.00;0.00;;;8.20;1.00;;;;;;5042180;28;20055;-84
2023/04/20 03:17:43;;;;;;;1.08;0.00;;;8.20;1.00;;;;;;5042336;28;20041;-83
2023/04/20 03:20:09;;;;;;;0.00;0.00;;;8.20;1.00;;;;;;5058386;28;20041;-83
2023/04/20 03:22:35;;;;;;;0.10;0.00;;;8.20;1.00;;;;;;5075272;28;20049;-83
2023/04/20 03:25:01;;;;;;;0.10;0.10;;;8.20;1.00;;;;;;5026115;28;20052;-84
2023/04/20 03:27:26;;;;;;;0.55;0.10;;;8.20;1.00;;;;;;5075077;28;20066;-84
2023/04/20 03:29:52;;;;;;;0.00;0.00;;;8.20;1.00;;;;;;5058928;28;20040;-83
2023/04/20 03:32:18;;;;;;;0.00;0.00;;;8.20;1.00;;;;;;5042109;28;20121;-83
2023/04/20 03:34:43;;;;;;;0.05;0.00;;;8.20;1.00;;;;;;5075429;28;20094;-83
2023/04/20 03:37:09;;;;;;;0.08;0.08;;;8.20;1.00;;;;;;5057901;28;20094;-83
2023/04/20 03:39:35;;;;;;;0.00;0.00;;;8.30;1.00;;;;;;5058461;28;20056;-83
2023/04/20 03:42:01;;;;;;;0.00;0.00;;;8.20;1.00;;;;;;5058642;28;20047;-83
2023/04/20 03:44:26;;;;;;;0.00;0.00;;;8.20;1.00;;;;;;5058631;28;20096;-84
2023/04/20 03:46:52;;;;;;;0.40;0.40;;;8.20;1.00;;;;;;5058613;28;20450;-83
2023/04/20 03:49:23;;;;;;;0.05;0.05;;;8.30;99.90;;;;;;5058353;28;20048;-83
2023/04/20 03:51:49;;;;;;;0.10;0.10;;;8.20;99.90;;;;;;5040313;28;20044;-84
2023/04/20 03:54:15;;;;;;;0.00;0.00;;;8.20;99.90;;;;;;5058286;28;20136;-83
2023/04/20 03:56:43;;;;;;;0.55;0.00;;;8.30;99.90;;;;;;5041560;28;20054;-83
2023/04/20 03:59:09;;;;;;;0.10;0.10;;;8.20;99.90;;;;;;5041816;28;20059;-83
2023/04/20 04:01:37;;;;;;;0.00;0.00;;;8.20;99.90;;;;;;5057991;28;20147;-83
2023/04/20 04:04:03;;;;;;;0.45;0.30;;;8.20;99.90;;;;;;5057898;28;20084;-83
2023/04/20 04:06:29;;;;;;;0.00;0.00;;;8.20;99.90;;;;;;5040246;28;20085;-83
2023/04/20 04:08:55;;;;;;;0.00;0.00;;;8.20;99.90;;;;;;5025034;28;20044;-83
2023/04/20 04:11:20;;;;;;;0.00;0.00;;;8.20;99.90;;;;;;5041355;28;20049;-83
2023/04/20 04:13:46;;;;;;;0.00;0.00;;;8.20;99.90;;;;;;5057947;28;20522;-83
2023/04/20 04:16:12;;;;;;;2.13;1.35;;;8.20;99.90;;;;;;5057888;28;20097;-83
2023/04/20 04:18:42;;;;;;;1.02;0.70;;;8.20;99.90;;;;;;5024600;28;20221;-83
2023/04/20 04:21:09;;;;;;;0.00;0.00;;;8.20;99.90;;;;;;5073733;28;20047;-83
2023/04/20 04:23:36;;;;;;;0.00;0.00;;;8.20;99.90;;;;;;5025173;28;20094;-82
2023/04/20 04:26:03;;;;;;;0.30;0.30;;;8.20;99.90;;;;;;5057605;28;20048;-83
2023/04/20 04:28:30;;;;;;;0.00;0.00;;;8.20;99.90;;;;;;5024898;28;20044;-83
2023/04/20 04:30:56;;;;;;;0.63;0.10;;;8.30;99.90;;;;;;5057479;28;20520;-83
2023/04/20 04:33:24;;;;;;;0.00;0.00;;;8.20;99.90;;;;;;5074118;28;20041;-83
2023/04/20 04:35:49;;;;;;;0.00;0.00;;;8.20;99.90;;;;;;5073410;28;20051;-83
2023/04/20 04:38:15;;;;;;;0.25;0.13;;;8.20;99.90;;;;;;5041048;28;20041;-82
2023/04/20 04:40:44;;;;;;;1.35;0.77;;;8.20;99.90;;;;;;5040464;28;20086;-82
2023/04/20 04:43:09;;;;;;;0.65;0.50;;;8.20;99.90;;;;;;5057034;28;20067;-82
2023/04/20 04:45:41;;;;;;;0.05;0.00;;;8.20;99.90;;;;;;5057064;28;20048;-83
2023/04/20 04:48:10;;;;;;;0.08;0.08;;;8.20;99.90;;;;;;5024665;28;20045;-83
2023/04/20 04:50:39;;;;;;;0.00;0.00;;;8.20;79.50;;;;;;5057056;28;20468;-82
2023/04/20 04:53:05;;;;;;;0.45;0.20;;;8.20;1.00;;;;;;5073686;28;20162;-82
2023/04/20 04:55:30;;;;;;;0.00;0.00;;;8.20;1.00;;;;;;5040512;28;20078;-82
2023/04/20 04:57:56;;;;;;;0.00;0.00;;;8.20;1.00;;;;;;5056892;28;20044;-82
2023/04/20 05:00:22;;;;;;;0.47;0.47;;;8.20;1.00;;;;;;5056545;28;20040;-82
2023/04/20 05:02:48;;;;;;;0.00;0.00;;;8.20;1.00;;;;;;5056294;28;20427;-82
2023/04/20 05:05:14;;;;;;;0.00;0.00;;;8.20;1.00;;;;;;5056231;28;20049;-84
2023/04/20 05:07:40;;;;;;;0.00;0.00;;;8.20;1.00;;;;;;5040136;28;20500;-83
2023/04/20 05:10:06;;;;;;;0.28;0.10;;;8.10;41.90;;;;;;5040312;28;20048;-82
2023/04/20 05:12:32;;;;;;;0.00;0.00;;;8.10;93.10;;;;;;5056617;28;20059;-82
2023/04/20 05:14:58;;;;;;;0.00;0.00;;;8.10;95.20;;;;;;5073152;28;20462;-82
2023/04/20 05:17:24;;;;;;;0.00;0.00;;;8.10;99.30;;;;;;5056376;28;20125;-82
2023/04/20 05:19:50;;;;;;;0.00;0.00;;;8.10;99.90;;;;;;5073143;28;20040;-82
2023/04/20 05:22:16;;;;;;;0.00;0.00;;;8.10;99.90;;;;;;5073391;28;20106;-82
2023/04/20 05:24:41;;;;;;;0.30;0.30;;;8.10;99.90;;;;;;5056428;28;20044;-82
2023/04/20 05:27:08;;;;;;;0.00;0.00;;;8.10;99.90;;;;;;5052498;28;20098;-83
2023/04/20 05:29:34;;;;;;;0.00;0.00;;;8.00;99.90;;;;;;5071942;28;20132;-83
2023/04/20 05:32:00;;;;;;;0.05;0.05;;;8.10;99.90;;;;;;5066781;28;20136;-83
2023/04/20 05:34:25;;;;;;;0.00;0.00;;;8.00;99.90;;;;;;5051881;28;20178;-83
2023/04/20 05:36:51;;;;;;;0.47;0.47;;;8.00;99.90;;;;;;5037642;28;20044;-83
2023/04/20 05:39:17;;;;;;;0.00;0.00;;;8.00;99.90;;;;;;5055133;28;20048;-83
2023/04/20 05:41:44;;;;;;;0.47;0.35;;;7.90;99.90;;;;;;5052176;28;20044;-82
2023/04/20 05:44:10;;;;;;;0.00;0.00;;;7.90;99.90;;;;;;5038089;28;20056;-83
2023/04/20 05:46:36;;;;;;;0.10;0.10;;;7.90;99.90;;;;;;5031391;28;20059;-83
2023/04/20 05:49:02;;;;;;;0.00;0.00;;;7.80;99.90;;;;;;5053670;28;20044;-82
2023/04/20 05:51:32;;;;;;;4.85;0.25;;;7.80;1.00;;;;;;5054805;28;20054;-83
2023/04/20 05:53:57;;;;;;;0.05;0.05;;;7.80;1.00;;;;;;5065938;28;20048;-83
2023/04/20 05:56:23;;;;;;;0.20;0.20;;;7.60;1.00;;;;;;5051483;28;20398;-83
2023/04/20 05:58:49;;;;;;;0.13;0.13;;;7.50;1.00;;;;;;5080488;28;20060;-83
2023/04/20 06:01:15;;;;;;;0.05;0.00;;;7.50;1.00;;;;;;5056620;28;20045;-83
2023/04/20 06:03:40;;;;;;;0.68;0.30;;;7.40;1.00;;;;;;5022011;28;20484;-83
2023/04/20 06:06:06;;;;;;;0.20;0.10;;;7.40;15.30;;;;;;5054496;28;20090;-84
2023/04/20 06:08:32;;;;;;;0.35;0.30;;;7.40;22.40;;;;;;5054756;28;20048;-84
2023/04/20 06:10:58;;;;;;;0.00;0.00;;;7.30;19.10;;;;;;5038415;28;20365;-83
2023/04/20 06:13:24;;;;;;;0.00;0.00;;;7.20;40.50;;;;;;5054820;28;20106;-84
2023/04/20 06:15:51;;;;;;;0.10;0.00;;;7.20;36.90;;;;;;5037320;28;20044;-85
2023/04/20 06:18:17;;;;;;;0.00;0.00;;;7.10;36.90;;;;;;5055150;28;20048;-84
2023/04/20 06:20:43;;;;;;;0.00;0.00;;;7.10;42.20;;;;;;5071300;28;20052;-85
2023/04/20 06:23:09;;;;;;;0.00;0.00;;;7.10;46.30;;;;;;5054475;28;20048;-84
2023/04/20 06:25:35;;;;;;;0.75;0.75;;;7.00;54.20;;;;;;5022327;28;20098;-85
2023/04/20 06:28:05;;;;;;;0.95;0.00;;;7.00;46.90;;;;;;5038727;28;20132;-84
2023/04/20 06:30:32;;;;;;;0.05;0.00;;;7.00;60.80;;;;;;5056077;28;20404;-85
2023/04/20 06:32:58;;;;;;;0.20;0.10;;;6.90;58.10;;;;;;5055607;28;20055;-82
2023/04/20 06:35:25;;;;;;;0.00;0.00;;;7.00;62.50;;;;;;5055550;28;20044;-87
2023/04/20 06:37:51;;;;;;;0.00;0.00;;;6.90;61.90;;;;;;5022832;28;20047;-84
2023/04/20 06:40:17;;;;;;;0.68;0.32;;;6.90;62.60;;;;;;5055392;28;20041;-86
2023/04/20 06:42:44;;;;;;;0.00;0.00;;;7.00;62.00;;;;;;5055372;28;20456;-85
2023/04/20 06:45:10;;;;;;;0.00;0.00;;;7.00;68.40;;;;;;5055335;28;20381;-85
2023/04/20 06:47:36;;;;;;;0.00;0.00;;;7.00;66.60;;;;;;5055662;28;20074;-85
2023/04/20 06:50:06;;;;;;;0.55;0.50;;;7.10;65.80;;;;;;5038934;28;20036;-85
2023/04/20 06:52:32;;;;;;;0.80;0.00;;;7.10;68.10;;;;;;5055276;28;20048;-85
2023/04/20 06:54:58;;;;;;;0.17;0.10;;;7.00;66.10;;;;;;5055383;28;20048;-85
2023/04/20 06:57:24;;;;;;;0.00;0.00;;;7.00;70.30;;;;;;5038857;28;20054;-86
2023/04/20 06:59:50;;;;;;;0.03;0.03;;;6.90;70.50;;;;;;5055779;28;20040;-85
2023/04/20 07:02:16;;;;;;;0.08;0.08;;;6.90;73.10;;;;;;5039014;28;20053;-88
2023/04/20 07:04:44;;;;;;;11.48;1.27;;;6.90;67.60;;;;;;5055736;28;20043;-89
2023/04/20 07:07:10;;;;;;;0.00;0.00;;;7.00;70.20;;;;;;5038636;28;20084;-85
2023/04/20 07:09:35;;;;;;;0.00;0.00;;;6.90;72.20;;;;;;5071910;28;20457;-85
2023/04/20 07:12:01;;;;;;;0.00;0.00;;;7.00;70.20;;;;;;5055301;28;20135;-85
2023/04/20 07:14:27;;;;;;;0.00;0.00;;;6.90;65.80;;;;;;5055043;28;20127;-85
2023/04/20 07:16:53;;;;;;;0.00;0.00;;;6.90;65.90;;;;;;5055179;28;20049;-85
2023/04/20 07:19:20;;;;;;;0.00;0.00;;;7.10;68.30;;;;;;5038708;28;20059;-85
2023/04/20 07:21:45;;;;;;;0.00;0.00;;;6.90;70.70;;;;;;5055152;28;20088;-85
2023/04/20 07:24:11;;;;;;;0.20;0.20;;;6.90;72.40;;;;;;5055015;28;20084;-85
2023/04/20 07:26:37;;;;;;;0.00;0.00;;;6.90;69.50;;;;;;5056860;28;20044;-86
2023/04/20 07:29:03;;;;;;;0.00;0.00;;;7.00;68.70;;;;;;5041914;28;20484;-85
2023/04/20 07:31:29;;;;;;;0.00;0.00;;;7.00;67.60;;;;;;5058402;28;20041;-85
2023/04/20 07:33:55;;;;;;;0.55;0.15;;;7.10;67.60;;;;;;5058711;28;20067;-85
2023/04/20 07:36:21;;;;;;;0.80;0.55;;;7.00;67.10;;;;;;5057874;28;20638;-85
2023/04/20 07:38:50;;;;;;;0.28;0.00;;;7.20;67.00;;;;;;5058314;28;20488;-85
2023/04/20 07:41:16;;;;;;;3.22;0.52;;;7.20;68.00;;;;;;5058552;28;20122;-85
2023/04/20 07:43:43;;;;;;;0.00;0.00;;;7.30;64.70;;;;;;5074702;28;20099;-85
2023/04/20 07:46:20;;;;;;;0.00;0.00;;;7.20;66.10;;;;;;5042133;28;20119;-84
2023/04/20 07:48:46;;;;;;;0.00;0.00;;;7.30;65.50;;;;;;5074995;28;20056;-85
2023/04/20 07:51:11;;;;;;;0.00;0.00;;;7.40;63.60;;;;;;5041862;28;20151;-84
2023/04/20 07:53:37;;;;;;;0.00;0.00;;;7.40;64.10;;;;;;5058357;28;20040;-85
2023/04/20 07:56:03;;;;;;;0.00;0.00;;;7.50;62.90;;;;;;5058112;28;20045;-85
2023/04/20 07:58:29;;;;;;;0.00;0.00;;;7.50;62.30;;;;;;5041620;28;20560;-84
2023/04/20 08:00:55;;;;;;;0.00;0.00;;;7.60;62.40;;;;;;5041366;28;20549;-86
2023/04/20 08:03:20;;;;;;;0.00;0.00;;;7.70;65.40;;;;;;5041600;28;20119;-84
2023/04/20 08:05:46;;;;;;;0.00;0.00;;;7.70;63.20;;;;;;5024544;28;20052;-85
2023/04/20 08:08:12;;;;;;;0.85;0.20;;;7.80;63.50;;;;;;5057842;28;20045;-85
2023/04/20 08:10:38;;;;;;;0.00;0.00;;;7.80;64.40;;;;;;5041171;28;20081;-85
2023/04/20 08:13:03;;;;;;;0.43;0.10;;;7.80;61.80;;;;;;5041548;28;20052;-85
2023/04/20 08:15:29;;;;;;;0.00;0.00;;;7.80;62.00;;;;;;5074314;28;20044;-85
2023/04/20 08:17:55;;;;;;;0.00;0.00;;;7.80;61.80;;;;;;5057883;28;20097;-85
2023/04/20 08:20:21;;;;;;;0.40;0.15;;;7.90;61.70;;;;;;5074192;28;20511;-86
2023/04/20 08:22:51;;;;;;;0.00;0.00;;;8.00;63.50;;;;;;5074500;28;20048;-85
2023/04/20 08:25:17;;;;;;;0.10;0.10;;;8.10;61.40;;;;;;5058109;28;20044;-85
2023/04/20 08:27:43;;;;;;;0.10;0.10;;;8.10;59.10;;;;;;5057688;28;20055;-84
2023/04/20 08:30:11;;;;;;;0.05;0.05;;;8.20;60.60;;;;;;5057543;28;20141;-85
2023/04/20 08:32:39;;;;;;;0.10;0.00;;;8.30;58.50;;;;;;5057617;28;20044;-85
2023/04/20 08:35:06;;;;;;;0.00;0.00;;;8.40;57.50;;;;;;5074073;28;20071;-86
2023/04/20 08:37:31;;;;;;;0.00;0.00;;;8.70;57.60;;;;;;5039811;28;20071;-85
2023/04/20 08:40:00;;;;;;;0.03;0.00;;;8.80;55.10;;;;;;5073871;28;20086;-84
2023/04/20 08:42:26;;;;;;;1.45;0.22;;;9.00;53.10;;;;;;5023850;28;20052;-85
2023/04/20 08:44:52;;;;;;;0.00;0.00;;;9.10;54.70;;;;;;5057513;28;20088;-84
2023/04/20 08:47:19;;;;;;;0.30;0.30;;;9.10;50.50;;;;;;5057250;28;20052;-84
2023/04/20 08:49:47;;;;;;;0.30;0.30;;;9.20;50.70;;;;;;5057000;28;20075;-85
2023/04/20 08:52:13;;;;;;;0.47;0.00;;;9.10;48.40;;;;;;5057031;28;20056;-86
2023/04/20 08:54:39;;;;;;;0.50;0.28;;;9.30;47.30;;;;;;5056956;28;20086;-86
2023/04/20 08:57:05;;;;;;;0.00;0.00;;;9.30;44.00;;;;;;5040540;28;20052;-85
2023/04/20 08:59:31;;;;;;;0.00;0.00;;;9.40;41.70;;;;;;5056930;28;20045;-84
2023/04/20 09:02:09;;;;;;;1.13;0.73;;;9.50;44.90;;;;;;5056953;28;20058;-85
2023/04/20 09:04:35;;;;;;;0.10;0.00;;;9.60;40.50;;;;;;5056849;28;20147;-85
2023/04/20 09:07:01;;;;;;;0.60;0.32;;;9.60;40.50;;;;;;5056292;28;20480;-83
2023/04/20 09:09:29;;;;;;;8.25;0.10;;;9.40;37.30;;;;;;5073449;28;20056;-84
2023/04/20 09:12:09;;;;;;;0.38;0.25;;;9.40;39.10;;;;;;5040546;28;20114;-87
2023/04/20 09:14:49;;;;;;;0.00;0.00;;;9.40;39.60;;;;;;5055655;28;20044;-87
2023/04/20 09:17:38;;;;;;;1.00;0.20;;;9.70;49.80;;;;;;5056385;28;20080;-88
2023/04/20 09:20:05;;;;;;;0.35;0.20;;;9.70;38.30;;;;;;5056618;28;20060;-87
2023/04/20 09:22:33;;;;;;;0.38;0.35;;;10.00;38.70;;;;;;5072846;28;20049;-87
2023/04/20 09:25:02;;;;;;;0.30;0.30;;;10.20;32.00;;;;;;5056407;28;20063;-87
2023/04/20 09:27:28;;;;;;;0.60;0.25;;;10.40;27.00;;;;;;5056072;28;20083;-87
2023/04/20 09:29:58;;;;;;;0.00;0.00;;;10.30;23.80;;;;;;5056167;28;20084;-87
2023/04/20 09:32:24;;;;;;;0.00;0.00;;;10.20;23.10;;;;;;5056280;28;20056;-88
2023/04/20 09:34:55;;;;;;;0.10;0.10;;;10.10;22.10;;;;;;5055867;28;20044;-89
2023/04/20 09:37:21;;;;;;;0.40;0.30;;;10.10;21.60;;;;;;5071908;28;20044;-86
2023/04/20 09:39:48;;;;;;;0.00;0.00;;;10.00;21.80;;;;;;5072463;28;20044;-86
2023/04/20 09:42:15;;;;;;;0.98;0.20;;;9.80;22.60;;;;;;5089371;28;20080;-87
2023/04/20 09:45:00;;;;;;;;;;;;;;;;;;;;;
2023/04/20 09:47:45;;;;;;;;;;;;;;;;;;;;;
2023/04/20 09:53:12;;;;;;;0.00;0.00;;;9.60;29.40;;;;;;5066410;28;20056;-94
2023/04/20 09:55:48;;;;;;;;;;;;;;;;;;;;;
2023/04/20 09:58:29;;;;;;;;;;;;;;;;;;;;;
2023/04/20 10:01:03;;;;;;;0.15;0.13;;;9.30;39.70;;;;;;5072846;28;20110;-91
2023/04/20 10:03:46;;;;;;;;;;;;;;;;;;;;;
2023/04/20 10:06:34;;;;;;;0.25;0.25;;;9.20;42.70;;;;;;5037537;28;20079;-92
2023/04/20 10:09:14;;;;;;;;;;;;;;;;;;;;;
2023/04/20 10:12:00;;;;;;;;;;;;;;;;;;;;;
2023/04/20 10:14:36;;;;;;;;;;;;;;;;;;;;;
2023/04/20 10:17:31;;;;;;;0.05;0.05;;;9.60;39.20;;;;;;5053040;28;20128;-92
2023/04/20 10:20:37;;;;;;;0.10;0.10;;;10.00;35.40;;;;;;5032432;28;20056;-91
2023/04/20 10:23:13;;;;;;;0.00;0.00;;;10.60;32.90;;;;;;5052931;28;20056;-91
2023/04/20 10:25:44;;;;;;;0.75;0.10;;;10.70;20.00;;;;;;5036800;28;20482;-92
2023/04/20 10:28:20;;;;;;;0.00;0.00;;;10.70;17.10;;;;;;5036539;28;20091;-90
2023/04/20 10:31:13;;;;;;;0.00;0.00;;;10.40;16.40;;;;;;5036308;28;20063;-91
2023/04/20 10:34:12;;;;;;;0.20;0.20;;;10.20;17.30;;;;;;5053669;28;20037;-91
2023/04/20 10:36:41;;;;;;;0.05;0.05;;;10.00;20.50;;;;;;5046431;28;20055;-90
2023/04/20 10:39:21;;;;;;;0.00;0.00;;;9.80;25.20;;;;;;5053940;28;20044;-91
2023/04/20 10:42:01;;;;;;;0.30;0.30;;;9.70;29.60;;;;;;5071002;28;20492;-90
2023/04/20 10:44:29;;;;;;;0.20;0.20;;;9.50;36.10;;;;;;5052959;28;20560;-91
2023/04/20 10:46:58;;;;;;;0.13;0.10;;;9.70;40.90;;;;;;5053265;28;20049;-91
2023/04/20 10:49:55;;;;;;;0.98;0.65;;;10.00;39.60;;;;;;5053666;28;20102;-91
2023/04/20 10:52:53;;;;;;;0.32;0.32;;;10.40;30.80;;;;;;5053768;28;20057;-90
2023/04/20 10:55:26;;;;;;;0.20;0.20;;;10.90;20.70;;;;;;5053141;28;20047;-88
2023/04/20 10:58:07;;;;;;;;;;;;;;;;;;;;;
2023/04/20 11:00:39;;;;;;;0.55;0.15;;;11.30;10.20;;;;;;5057064;28;20216;-89
2023/04/20 11:03:10;;;;;;;0.10;0.10;;;11.50;1.00;;;;;;5059970;28;20621;-90
2023/04/20 11:05:41;;;;;;;0.10;0.10;;;11.60;1.00;;;;;;5059306;28;20098;-88
2023/04/20 11:11:20;;;;;;;0.05;0.05;;;12.10;1.00;;;;;;5075779;28;20416;-89
2023/04/20 11:13:59;;;;;;;3.03;0.95;;;12.30;1.00;;;;;;5075625;28;20481;-88
2023/04/20 11:16:32;;;;;;;0.47;0.40;;;12.50;1.00;;;;;;5044249;28;20416;-89
2023/04/20 11:19:03;;;;;;;0.00;0.00;;;12.50;1.00;;;;;;5060630;28;20131;-88
2023/04/20 11:21:42;;;;;;;0.20;0.20;;;12.30;1.00;;;;;;5075977;28;20377;-88
2023/04/20 11:24:22;;;;;;;0.10;0.10;;;11.90;1.00;;;;;;5075220;28;20492;-89
2023/04/20 11:26:57;;;;;;;0.00;0.00;;;11.70;1.00;;;;;;5058918;28;20048;-89
2023/04/20 11:29:37;;;;;;;0.00;0.00;;;11.70;1.00;;;;;;5059755;28;20462;-88
2023/04/20 11:32:19;;;;;;;0.20;0.20;;;11.70;1.00;;;;;;5058587;28;20110;-88
2023/04/20 11:34:45;;;;;;;0.10;0.10;;;11.70;1.00;;;;;;5059530;28;20052;-88
2023/04/20 11:37:29;;;;;;;0.00;0.00;;;11.60;1.00;;;;;;5058656;28;20081;-89
2023/04/20 11:40:27;;;;;;;0.28;0.00;;;11.60;1.00;;;;;;5058425;28;20098;-89
2023/04/20 11:43:03;;;;;;;;;;;;;;;;;;;;;
2023/04/20 11:45:34;;;;;;;3.15;0.17;;;11.60;1.00;;;;;;5074353;28;20048;-88
2023/04/20 11:48:14;;;;;;;0.13;0.13;;;11.60;1.00;;;;;;5059574;28;20037;-90
2023/04/20 11:50:51;;;;;;;0.40;0.25;;;12.00;1.00;;;;;;5075505;28;20098;-89
2023/04/20 11:53:33;;;;;;;1.23;0.30;;;11.90;99.90;;;;;;5075076;28;20094;-90
2023/04/20 11:56:31;;;;;;;0.13;0.13;;;11.80;99.90;;;;;;5059414;28;20049;-89
2023/04/20 11:59:07;;;;;;;;;;;;;;;;;;;;;
2023/04/20 12:01:41;;;;;;;0.30;0.30;;;11.60;99.90;;;;;;5075034;28;20044;-90
2023/04/20 12:04:11;;;;;;;0.88;0.75;;;11.30;1.00;;;;;;5058221;28;20451;-89
2023/04/20 12:06:58;;;;;;;0.10;0.10;;;11.30;1.00;;;;;;5057529;28;20416;-90
2023/04/20 12:09:34;;;;;;;0.90;0.30;;;11.30;1.00;;;;;;5075627;28;20198;-90
2023/04/20 12:12:10;;;;;;;;;;;;;;;;;;;;;
2023/04/20 12:14:54;;;;;;;;;;;;;;;;;;;;;
2023/04/20 12:17:33;;;;;;;0.10;0.10;;;11.60;1.00;;;;;;5060276;28;20067;-90
2023/04/20 12:20:10;;;;;;;0.00;0.00;;;12.00;1.00;;;;;;5041943;28;20050;-90
2023/04/20 12:22:38;;;;;;;0.20;0.20;;;12.40;1.00;;;;;;5058013;28;20087;-89
2023/04/20 12:25:07;;;;;;;0.43;0.15;;;12.50;1.00;;;;;;5057958;28;20056;-90
2023/04/20 12:27:41;;;;;;;0.57;0.57;;;12.60;99.90;;;;;;5074070;28;20037;-90
2023/04/20 12:30:20;;;;;;;;;;;;;;;;;;;;;
2023/04/20 12:32:48;;;;;;;1.13;0.20;;;12.40;99.90;;;;;;5058515;28;20085;-90
2023/04/20 12:35:22;;;;;;;0.82;0.68;;;12.10;99.90;;;;;;5057561;28;20048;-89
2023/04/20 12:38:01;;;;;;;0.10;0.10;;;12.00;99.90;;;;;;5074804;28;20101;-90
2023/04/20 12:40:32;;;;;;;0.30;0.30;;;11.90;99.90;;;;;;5057697;28;20098;-90
2023/04/20 12:43:08;;;;;;;;;;;;;;;;;;;;;
2023/04/20 12:45:37;;;;;;;0.00;0.00;;;11.60;99.90;;;;;;5059610;28;20389;-91
2023/04/20 12:48:06;;;;;;;1.25;0.20;;;11.50;99.90;;;;;;5057477;28;20048;-90
2023/04/20 12:50:39;;;;;;;0.20;0.20;;;11.40;99.90;;;;;;5057581;28;20480;-90
2023/04/20 12:53:12;;;;;;;1.83;0.22;;;11.30;99.90;;;;;;5074837;28;20094;-90
2023/04/20 12:55:48;;;;;;;0.17;0.05;;;11.20;99.90;;;;;;5041361;28;20036;-90
2023/04/20 12:58:19;;;;;;;0.17;0.17;;;11.30;99.90;;;;;;5075151;28;20048;-90
2023/04/20 13:01:06;;;;;;;0.20;0.13;;;11.30;99.90;;;;;;5075606;28;20400;-89
2023/04/20 13:03:45;;;;;;;;;;;;;;;;;;;;;
2023/04/20 13:06:31;;;;;;;0.35;0.10;;;11.30;99.90;;;;;;5073822;28;20055;-90
2023/04/20 13:09:28;;;;;;;0.57;0.25;;;11.30;99.90;;;;;;5041687;28;20056;-91
2023/04/20 13:12:26;;;;;;;;;;;;;;;;;;;;;
2023/04/20 13:15:24;;;;;;;;;;;;;;;;;;;;;
2023/04/20 13:18:04;;;;;;;;;;;;;;;;;;;;;
2023/04/20 13:20:35;;;;;;;0.20;0.15;;;13.20;99.90;;;;;;5076477;28;20123;-90
2023/04/20 13:23:04;;;;;;;1.65;0.65;;;13.30;99.90;;;;;;5056826;28;20041;-91
2023/04/20 13:25:40;;;;;;;2.38;0.45;;;13.00;99.90;;;;;;5056695;28;20055;-89
2023/04/20 13:28:18;;;;;;;2.83;0.40;;;12.70;99.90;;;;;;5075138;28;20127;-91
2023/04/20 13:30:54;;;;;;;0.57;0.40;;;12.70;99.90;;;;;;5074829;28;20443;-90
2023/04/20 13:36:20;;;;;;;0.00;0.00;;;12.70;99.90;;;;;;5060041;28;20159;-90
2023/04/20 13:38:54;;;;;;;0.30;0.20;;;12.70;99.90;;;;;;5073412;28;20048;-90